Ketchikan, AK

9:54 AM AKST on January 16, 2018 (GMT -0900)
Ketchikan International | | Change Station

Elev 85 ft 55.36 °N, 131.71 °W | Updated 1 hour ago

Overcast
Overcast
45 °F
Feels Like 39 °F
N
13
Wind Variable Wind from SSE

Today
High -- | Low -- °F
--% Chance of Precip.
Yesterday
High -- | Low -- °F
Precip. -- in
Pressure 29.76 in
Visibility 10.0 miles
Clouds Scattered Clouds 2700 ft
Overcast 3500 ft
Windchill 39 °F
Dew Point 42 °F
Humidity 90%
Rainfall 0.21 in
Snow Depth Not available.
8:03 AM 3:50 PM
Waning Crescent, 0% visible
METAR PAKT 161753Z 15011KT 10SM SCT027 OVC035 07/06 A2975 RMK AO2 RAE52 SLP076 P0001 60021 T00720056 10083 20072 53020 $
Pressure 29.76 in
Visibility 10.0 miles
Clouds Scattered Clouds 2700 ft
Overcast 3500 ft
Windchill 39 °F
Dew Point 42 °F
Humidity 90%
Rainfall 0.21 in
Snow Depth Not available.
8:03 AM 3:50 PM
Waning Crescent, 0% visible
METAR PAKT 161753Z 15011KT 10SM SCT027 OVC035 07/06 A2975 RMK AO2 RAE52 SLP076 P0001 60021 T00720056 10083 20072 53020 $

Get Severe Weather Alerts

Thanks for signing up!

Be on the lookout for a verification email in your inbox.

You'll start receiving the daily forecast at 6 AM.

×

10-Day Weather Forecast

Almanac

Astronomy

Jan. 16, 2018 Rise Set
Actual Time
Civil Twilight
Nautical Twilight
Astronomical Twilight
Moon
Length of Visible Light
Length of Day
Tomorrow will be .
, % of the Moon is Illuminated

Today's Extremes

State Highs State Lows

Community

WunderPhotos

Category 6

Welcome to Category 6. This is the collective home for Weather Underground's featured writeups by Dr. Jeff Masters (right), Bob Henson (left), Chris Burt, and other regular contributors.

Nearby

Air Quality

  Air Quality AQ Index Pollutant
Not available.

Snow Depth

Station Depth Elevation

Earthquake Activity

City Distance Mag. Time & Date
Minimum magnitude displayed is 2.5.

Coastal Water Temperatures

Place Temperature

Stations

Nearby Weather Stations

Station Location Temp. Windchill Dew Point Humidity Wind Precip. Elev Updated Type
                   

Watches & Warnings

There are currently no watches in effect.